Altadena, California
Current Conditions -  °F | °C
As of 5:45 PM on Sunday 21 Dec 2014 (Local Time) from KEMT Reporting Station
Clear Clear  
Wind Chill: 59°   Ceiling: Unl
Heat Index: 59°   Visibility: 10mi
Dew Point: 52°   Wind: 0mph
Humidity: 77%   Direction: NA
Pressure: 30.06"   Gusts: NA
Location:  34.19°N, 118.13°W
Report Text: KEMT 220145Z 00000KT 10SM CLR 15/11 A3006
Loading
Personal Weather Stations






























Interactive Weather Map New forecast layout! Learn more

10-Day Weather Forecast

Advertisements
Track Severe Weather on mobile